createdAt,value
2023-05-11T00:00:12.652Z,12.76
2023-05-11T00:01:12.520Z,12.75
2023-05-11T00:02:12.562Z,12.75
2023-05-11T00:03:12.721Z,12.76
2023-05-11T00:04:12.489Z,12.76
2023-05-11T00:05:12.483Z,12.78
2023-05-11T00:06:12.442Z,12.78
2023-05-11T00:07:12.429Z,12.78
2023-05-11T00:08:14.315Z,12.78
2023-05-11T00:09:12.433Z,12.78
2023-05-11T00:10:12.423Z,12.76
2023-05-11T00:11:12.370Z,12.73
2023-05-11T00:12:12.374Z,12.75
2023-05-11T00:13:12.351Z,12.70
2023-05-11T00:14:12.366Z,12.69
2023-05-11T00:15:12.324Z,12.68
2023-05-11T00:16:12.353Z,12.69
2023-05-11T00:17:12.285Z,12.68
2023-05-11T00:18:12.285Z,12.68
2023-05-11T00:19:12.284Z,12.66
2023-05-11T00:20:12.268Z,12.65
2023-05-11T00:21:12.241Z,12.65
2023-05-11T00:22:12.240Z,12.62
2023-05-11T00:23:12.229Z,12.62
2023-05-11T00:24:12.224Z,12.61
2023-05-11T00:25:12.188Z,12.58
2023-05-11T00:26:12.183Z,12.55
2023-05-11T00:27:12.155Z,12.54
2023-05-11T00:28:12.170Z,12.53
2023-05-11T00:29:12.134Z,12.51
2023-05-11T00:30:12.145Z,12.50
2023-05-11T00:31:12.167Z,12.47
2023-05-11T00:32:12.093Z,12.47
2023-05-11T00:33:12.096Z,12.43
2023-05-11T00:34:12.073Z,12.40
2023-05-11T00:35:12.061Z,12.36
2023-05-11T00:36:12.059Z,12.35
2023-05-11T00:37:12.037Z,12.33
2023-05-11T00:38:12.030Z,12.29
2023-05-11T00:39:11.995Z,12.29
2023-05-11T00:40:11.983Z,12.26
2023-05-11T00:41:11.996Z,12.20
2023-05-11T00:42:11.981Z,12.20
2023-05-11T00:43:11.951Z,12.18
2023-05-11T00:44:11.934Z,12.15
2023-05-11T00:45:11.930Z,12.15
2023-05-11T00:46:11.906Z,12.17
2023-05-11T00:47:11.967Z,12.15
2023-05-11T00:48:11.892Z,12.15
2023-05-11T00:49:11.922Z,12.17
2023-05-11T00:50:11.885Z,12.15
2023-05-11T00:51:11.856Z,12.17
2023-05-11T00:52:11.863Z,12.14
2023-05-11T00:53:11.795Z,12.14
2023-05-11T00:54:11.795Z,12.14
2023-05-11T00:55:11.789Z,12.12
2023-05-11T00:56:11.797Z,12.14
2023-05-11T00:57:11.766Z,12.14
2023-05-11T00:58:11.774Z,12.14
2023-05-11T00:59:11.721Z,12.15
2023-05-11T01:00:11.714Z,12.18
2023-05-11T01:01:11.751Z,12.20
2023-05-11T01:02:11.739Z,12.23
2023-05-11T01:03:11.728Z,12.21
2023-05-11T01:04:11.672Z,12.15
2023-05-11T01:05:11.676Z,12.08
2023-05-11T01:06:11.658Z,12.08
2023-05-11T01:07:11.776Z,12.07
2023-05-11T01:08:11.638Z,12.05
2023-05-11T01:09:11.601Z,12.07
2023-05-11T01:10:11.649Z,12.03
2023-05-11T01:11:11.747Z,12.00
2023-05-11T01:12:11.563Z,11.99
2023-05-11T01:13:11.550Z,11.99
2023-05-11T01:14:11.558Z,12.00
2023-05-11T01:15:11.546Z,12.03
2023-05-11T01:16:11.615Z,12.07
2023-05-11T01:17:11.486Z,12.07
2023-05-11T01:18:11.511Z,12.05
2023-05-11T01:19:11.680Z,12.02
2023-05-11T01:20:11.493Z,12.00
2023-05-11T01:21:11.442Z,11.97
2023-05-11T01:22:11.448Z,11.97
2023-05-11T01:23:11.417Z,11.97
2023-05-11T01:24:11.451Z,11.95
2023-05-11T01:25:11.398Z,11.95
2023-05-11T01:26:11.471Z,11.93
2023-05-11T01:27:11.372Z,11.89
2023-05-11T01:28:11.369Z,11.86
2023-05-11T01:29:11.430Z,11.85
2023-05-11T01:30:11.310Z,11.83
2023-05-11T01:31:11.382Z,11.81
2023-05-11T01:32:11.330Z,11.81
2023-05-11T01:33:11.324Z,11.80
2023-05-11T01:34:11.297Z,11.77
2023-05-11T01:35:11.277Z,11.74
2023-05-11T01:36:11.233Z,11.74
2023-05-11T01:37:11.225Z,11.74
2023-05-11T01:38:11.230Z,11.73
2023-05-11T01:39:11.208Z,11.71
2023-05-11T01:40:11.182Z,11.71
2023-05-11T01:41:11.155Z,11.73
2023-05-11T01:42:11.177Z,11.71
2023-05-11T01:43:11.156Z,11.74
2023-05-11T01:44:11.139Z,11.71
2023-05-11T01:45:11.100Z,11.71
2023-05-11T01:46:11.123Z,11.71
2023-05-11T01:47:11.081Z,11.68
2023-05-11T01:48:11.077Z,11.65
2023-05-11T01:49:11.050Z,11.63
2023-05-11T01:50:11.044Z,11.60
2023-05-11T01:51:11.032Z,11.53
2023-05-11T01:52:11.113Z,11.53
2023-05-11T01:53:11.022Z,11.55
2023-05-11T01:54:10.984Z,11.53
2023-05-11T01:55:10.975Z,11.53
2023-05-11T01:56:10.968Z,11.51
2023-05-11T01:57:10.968Z,11.51
2023-05-11T01:58:10.950Z,11.51
2023-05-11T01:59:10.917Z,11.51
2023-05-11T02:00:10.911Z,11.45
2023-05-11T02:01:10.908Z,11.43
2023-05-11T02:02:10.945Z,11.41
2023-05-11T02:03:10.977Z,11.41
2023-05-11T02:04:10.860Z,11.40
2023-05-11T02:05:10.837Z,11.40
2023-05-11T02:06:10.853Z,11.38
2023-05-11T02:07:10.832Z,11.37
2023-05-11T02:08:10.815Z,11.35
2023-05-11T02:09:10.800Z,11.34
2023-05-11T02:10:10.797Z,11.33
2023-05-11T02:11:10.828Z,11.33
2023-05-11T02:12:10.765Z,11.35
2023-05-11T02:13:10.767Z,11.33
2023-05-11T02:14:10.731Z,11.31
2023-05-11T02:15:10.708Z,11.27
2023-05-11T02:16:10.737Z,11.26
2023-05-11T02:17:10.695Z,11.25
2023-05-11T02:18:10.694Z,11.23
2023-05-11T02:19:10.712Z,11.20
2023-05-11T02:20:10.694Z,11.19
2023-05-11T02:21:10.650Z,11.18
2023-05-11T02:22:10.633Z,11.18
2023-05-11T02:23:10.606Z,11.16
2023-05-11T02:24:10.591Z,11.15
2023-05-11T02:25:10.608Z,11.12
2023-05-11T02:26:10.579Z,11.08
2023-05-11T02:27:10.549Z,11.05
2023-05-11T02:28:10.542Z,11.04
2023-05-11T02:29:10.542Z,11.05
2023-05-11T02:30:10.546Z,11.04
2023-05-11T02:31:10.529Z,11.07
2023-05-11T02:32:10.501Z,11.05
2023-05-11T02:33:10.493Z,11.05
2023-05-11T02:34:10.482Z,11.02
2023-05-11T02:35:10.458Z,10.97
2023-05-11T02:36:10.439Z,10.92
2023-05-11T02:37:10.418Z,10.90
2023-05-11T02:38:10.417Z,10.89
2023-05-11T02:39:10.405Z,10.84
2023-05-11T02:40:10.415Z,10.87
2023-05-11T02:41:10.388Z,10.87
2023-05-11T02:42:10.360Z,10.86
2023-05-11T02:43:10.344Z,10.86
2023-05-11T02:44:10.350Z,10.84
2023-05-11T02:45:10.330Z,10.80
2023-05-11T02:46:10.325Z,10.79
2023-05-11T02:47:10.287Z,10.77
2023-05-11T02:48:10.381Z,10.80
2023-05-11T02:49:10.274Z,10.80
2023-05-11T02:50:10.275Z,10.84
2023-05-11T02:51:10.228Z,10.84
2023-05-11T02:52:10.221Z,10.84
2023-05-11T02:53:10.228Z,10.82
2023-05-11T02:54:10.223Z,10.82
2023-05-11T02:55:10.175Z,10.79
2023-05-11T02:56:10.174Z,10.80
2023-05-11T02:57:10.149Z,10.79
2023-05-11T02:58:10.224Z,10.79
2023-05-11T02:59:10.124Z,10.75
2023-05-11T03:00:10.123Z,10.72
2023-05-11T03:01:10.147Z,10.75
2023-05-11T03:02:10.178Z,10.75
2023-05-11T03:03:10.177Z,10.71
2023-05-11T03:04:10.066Z,10.69
2023-05-11T03:05:10.053Z,10.68
2023-05-11T03:06:10.042Z,10.67
2023-05-11T03:07:10.047Z,10.65
2023-05-11T03:08:10.037Z,10.65
2023-05-11T03:09:10.496Z,10.65
2023-05-11T03:10:09.985Z,10.64
2023-05-11T03:11:09.974Z,10.64
2023-05-11T03:12:09.992Z,10.64
2023-05-11T03:13:09.937Z,10.62
2023-05-11T03:14:09.933Z,10.62
2023-05-11T03:15:09.925Z,10.61
2023-05-11T03:16:09.949Z,10.65
2023-05-11T03:17:09.906Z,10.67
2023-05-11T03:18:09.953Z,10.65
2023-05-11T03:19:09.861Z,10.64
2023-05-11T03:20:09.849Z,10.61
2023-05-11T03:21:09.868Z,10.62
2023-05-11T03:22:09.852Z,10.61
2023-05-11T03:23:09.810Z,10.61
2023-05-11T03:24:09.816Z,10.61
2023-05-11T03:25:09.789Z,10.61
2023-05-11T03:26:09.801Z,10.61
2023-05-11T03:27:09.769Z,10.62
2023-05-11T03:28:09.788Z,10.64
2023-05-11T03:29:09.734Z,10.62
2023-05-11T03:30:09.727Z,10.62
2023-05-11T03:31:09.748Z,10.62
2023-05-11T03:32:09.754Z,10.65
2023-05-11T03:33:09.751Z,10.67
2023-05-11T03:34:09.679Z,10.68
2023-05-11T03:35:09.660Z,10.68
2023-05-11T03:36:09.691Z,10.69
2023-05-11T03:37:09.627Z,10.69
2023-05-11T03:38:09.623Z,10.68
2023-05-11T03:39:09.608Z,10.64
2023-05-11T03:40:09.651Z,10.64
2023-05-11T03:41:09.598Z,10.64
2023-05-11T03:42:09.575Z,10.62
2023-05-11T03:43:09.560Z,10.61
2023-05-11T03:44:09.570Z,10.61
2023-05-11T03:45:09.545Z,10.58
2023-05-11T03:46:09.571Z,10.55
2023-05-11T03:47:09.512Z,10.53
2023-05-11T03:48:09.498Z,10.55
2023-05-11T03:49:11.510Z,10.53
2023-05-11T03:50:09.496Z,10.53
2023-05-11T03:51:09.481Z,10.53
2023-05-11T03:52:09.437Z,10.51
2023-05-11T03:53:09.426Z,10.48
2023-05-11T03:54:09.414Z,10.46
2023-05-11T03:55:09.408Z,10.43
2023-05-11T03:56:09.378Z,10.42
2023-05-11T03:57:09.363Z,10.41
2023-05-11T03:58:09.358Z,10.41
2023-05-11T03:59:09.395Z,10.41
2023-05-11T04:00:09.352Z,10.36
2023-05-11T04:01:09.310Z,10.36
2023-05-11T04:02:09.361Z,10.38
2023-05-11T04:03:09.454Z,10.39
2023-05-11T04:04:09.368Z,10.42
2023-05-11T04:05:09.267Z,10.43
2023-05-11T04:06:09.250Z,10.43
2023-05-11T04:07:09.230Z,10.45
2023-05-11T04:08:09.223Z,10.48
2023-05-11T04:09:09.238Z,10.48
2023-05-11T04:10:09.204Z,10.49
2023-05-11T04:11:09.177Z,10.55
2023-05-11T04:12:09.176Z,10.55
2023-05-11T04:13:09.169Z,10.57
2023-05-11T04:14:09.162Z,10.57
2023-05-11T04:15:09.138Z,10.58
2023-05-11T04:16:09.168Z,10.58
2023-05-11T04:17:09.098Z,10.57
2023-05-11T04:18:09.156Z,10.57
2023-05-11T04:19:09.156Z,10.57
2023-05-11T04:20:09.060Z,10.57
2023-05-11T04:21:09.058Z,10.58
2023-05-11T04:22:09.040Z,10.58
2023-05-11T04:23:10.392Z,10.57
2023-05-11T04:24:09.015Z,10.57
2023-05-11T04:25:09.011Z,10.59
2023-05-11T04:26:08.993Z,10.61
2023-05-11T04:27:08.973Z,10.61
2023-05-11T04:28:08.972Z,10.57
2023-05-11T04:29:08.947Z,10.58
2023-05-11T04:30:08.947Z,10.57
2023-05-11T04:31:08.944Z,10.58
2023-05-11T04:32:08.930Z,10.58
2023-05-11T04:33:08.931Z,10.58
2023-05-11T04:34:08.912Z,10.59
2023-05-11T04:35:08.875Z,10.57
2023-05-11T04:36:08.853Z,10.55
2023-05-11T04:37:08.849Z,10.55
2023-05-11T04:38:08.849Z,10.49
2023-05-11T04:39:08.838Z,10.48
2023-05-11T04:40:08.807Z,10.48
2023-05-11T04:41:08.801Z,10.48
2023-05-11T04:42:08.797Z,10.46
2023-05-11T04:43:08.765Z,10.45
2023-05-11T04:44:08.782Z,10.46
2023-05-11T04:45:08.723Z,10.48
2023-05-11T04:46:08.708Z,10.49
2023-05-11T04:47:08.804Z,10.48
2023-05-11T04:48:08.784Z,10.49
2023-05-11T04:49:08.675Z,10.51
2023-05-11T04:50:08.685Z,10.53
2023-05-11T04:51:08.644Z,10.57
2023-05-11T04:52:08.668Z,10.58
2023-05-11T04:53:08.613Z,10.61
2023-05-11T04:54:08.647Z,10.61
2023-05-11T04:55:08.619Z,10.64
2023-05-11T04:56:08.688Z,10.67
2023-05-11T04:57:09.120Z,10.69
2023-05-11T04:58:08.633Z,10.71
2023-05-11T04:59:08.558Z,10.75
2023-05-11T05:00:08.719Z,10.72
2023-05-11T05:01:08.578Z,10.76
2023-05-11T05:02:08.515Z,10.76
2023-05-11T05:03:08.577Z,10.76
2023-05-11T05:04:08.560Z,10.79
2023-05-11T05:05:08.474Z,10.80
2023-05-11T05:06:08.501Z,10.82
2023-05-11T05:07:08.494Z,10.83
2023-05-11T05:08:08.436Z,10.84
2023-05-11T05:09:08.421Z,10.86
2023-05-11T05:10:08.447Z,10.89
2023-05-11T05:11:08.411Z,10.92
2023-05-11T05:12:08.384Z,11.02
2023-05-11T05:13:08.378Z,11.07
2023-05-11T05:14:08.367Z,11.13
2023-05-11T05:15:08.365Z,11.16
2023-05-11T05:16:08.335Z,11.25
2023-05-11T05:17:08.349Z,11.26
2023-05-11T05:18:08.353Z,11.31
2023-05-11T05:19:08.386Z,11.34
2023-05-11T05:20:08.293Z,11.43
2023-05-11T05:21:08.267Z,11.51
2023-05-11T05:22:08.255Z,11.52
2023-05-11T05:23:08.239Z,11.53
2023-05-11T05:24:08.232Z,11.55
2023-05-11T05:25:08.236Z,11.59
2023-05-11T05:26:08.218Z,11.62
2023-05-11T05:27:08.180Z,11.65
2023-05-11T05:28:08.168Z,11.71
2023-05-11T05:29:08.169Z,11.71
2023-05-11T05:30:08.135Z,11.73
2023-05-11T05:31:08.363Z,11.73
2023-05-11T05:32:08.105Z,11.85
2023-05-11T05:33:08.176Z,11.88
2023-05-11T05:34:08.097Z,11.86
2023-05-11T05:35:08.079Z,11.88
2023-05-11T05:36:08.102Z,11.86
2023-05-11T05:37:08.045Z,11.86
2023-05-11T05:38:08.054Z,11.85
2023-05-11T05:39:08.029Z,11.83
2023-05-11T05:40:08.022Z,11.76
2023-05-11T05:41:07.987Z,11.73
2023-05-11T05:42:07.986Z,11.73
2023-05-11T05:43:07.975Z,11.70
2023-05-11T05:44:07.949Z,11.68
2023-05-11T05:45:07.940Z,11.65
2023-05-11T05:46:08.064Z,11.67
2023-05-11T05:47:07.915Z,11.70
2023-05-11T05:48:07.961Z,11.71
2023-05-11T05:49:07.924Z,11.76
2023-05-11T05:50:07.891Z,11.81
2023-05-11T05:51:07.862Z,11.81
2023-05-11T05:52:07.879Z,11.86
2023-05-11T05:53:07.856Z,11.91
2023-05-11T05:54:07.846Z,11.96
2023-05-11T05:55:07.819Z,11.96
2023-05-11T05:56:07.804Z,11.95
2023-05-11T05:57:07.808Z,11.97
2023-05-11T05:58:07.786Z,12.02
2023-05-11T05:59:07.826Z,12.10
2023-05-11T06:00:07.835Z,12.14
2023-05-11T06:01:07.735Z,12.17
2023-05-11T06:02:07.724Z,12.17
2023-05-11T06:03:07.974Z,12.18
2023-05-11T06:04:08.023Z,12.20
2023-05-11T06:05:07.758Z,12.25
2023-05-11T06:06:07.669Z,12.28
2023-05-11T06:07:07.657Z,12.29
2023-05-11T06:08:11.149Z,12.28
2023-05-11T06:09:07.633Z,12.26
2023-05-11T06:10:07.653Z,12.26
2023-05-11T06:11:07.654Z,12.28
2023-05-11T06:12:07.595Z,12.29
2023-05-11T06:13:07.593Z,12.29
2023-05-11T06:14:07.576Z,12.26
2023-05-11T06:15:07.553Z,12.28
2023-05-11T06:16:07.567Z,12.32
2023-05-11T06:17:07.526Z,12.30
2023-05-11T06:18:07.591Z,12.32
2023-05-11T06:19:07.556Z,12.33
2023-05-11T06:20:07.493Z,12.40
2023-05-11T06:21:07.489Z,12.44
2023-05-11T06:22:07.466Z,12.48
2023-05-11T06:23:07.477Z,12.48
2023-05-11T06:24:07.427Z,12.48
2023-05-11T06:25:07.419Z,12.53
2023-05-11T06:26:07.404Z,12.50
2023-05-11T06:27:07.440Z,12.53
2023-05-11T06:28:07.389Z,12.55
2023-05-11T06:29:07.362Z,12.55
2023-05-11T06:30:07.347Z,12.55
2023-05-11T06:31:07.338Z,12.50
2023-05-11T06:32:07.438Z,12.50
2023-05-11T06:33:07.388Z,12.51
2023-05-11T06:34:07.294Z,12.54
2023-05-11T06:35:07.319Z,12.57
2023-05-11T06:36:07.270Z,12.55
2023-05-11T06:37:07.278Z,12.55
2023-05-11T06:38:07.245Z,12.55
2023-05-11T06:39:07.250Z,12.55
2023-05-11T06:40:07.213Z,12.54
2023-05-11T06:41:07.206Z,12.53
2023-05-11T06:42:07.209Z,12.54
2023-05-11T06:43:07.178Z,12.55
2023-05-11T06:44:07.176Z,12.58
2023-05-11T06:45:07.191Z,12.63
2023-05-11T06:46:07.183Z,12.65
2023-05-11T06:47:07.150Z,12.65
2023-05-11T06:48:07.159Z,12.68
2023-05-11T06:49:07.099Z,12.68
2023-05-11T06:50:07.080Z,12.66
2023-05-11T06:51:07.091Z,12.69
2023-05-11T06:52:07.102Z,12.69
2023-05-11T06:53:07.048Z,12.72
2023-05-11T06:54:07.031Z,12.73
2023-05-11T06:55:07.033Z,12.73
2023-05-11T06:56:07.027Z,12.75
2023-05-11T06:57:07.008Z,12.81
2023-05-11T06:58:06.994Z,12.83
2023-05-11T06:59:06.973Z,12.83
2023-05-11T07:00:06.964Z,12.78
2023-05-11T07:01:06.966Z,12.78
2023-05-11T07:02:06.925Z,12.75
2023-05-11T07:03:06.961Z,12.70
2023-05-11T07:04:06.950Z,12.68
2023-05-11T07:05:06.949Z,12.68
2023-05-11T07:06:06.879Z,12.69
2023-05-11T07:07:06.860Z,12.72
2023-05-11T07:08:06.846Z,12.73
2023-05-11T07:09:06.836Z,12.70
2023-05-11T07:10:06.813Z,12.69
2023-05-11T07:11:06.818Z,12.72
2023-05-11T07:12:06.794Z,12.70
2023-05-11T07:13:06.779Z,12.72
2023-05-11T07:14:06.760Z,12.73
2023-05-11T07:15:06.770Z,12.75
2023-05-11T07:16:06.756Z,12.80
2023-05-11T07:17:06.751Z,12.80
2023-05-11T07:18:06.731Z,12.83
2023-05-11T07:19:06.837Z,12.86
2023-05-11T07:20:06.697Z,12.83
2023-05-11T07:21:06.682Z,12.87
2023-05-11T07:22:06.649Z,12.90
2023-05-11T07:23:06.640Z,12.93
2023-05-11T07:24:06.623Z,12.98
2023-05-11T07:25:06.637Z,13.01
2023-05-11T07:26:06.608Z,13.03
2023-05-11T07:27:06.591Z,13.08
2023-05-11T07:28:06.581Z,13.09
2023-05-11T07:29:06.574Z,13.09
2023-05-11T07:30:06.581Z,13.11
2023-05-11T07:31:06.569Z,13.11
2023-05-11T07:32:06.524Z,13.12
2023-05-11T07:33:06.689Z,13.11
2023-05-11T07:34:06.487Z,13.11
2023-05-11T07:35:06.500Z,13.09
2023-05-11T07:36:06.477Z,13.09
2023-05-11T07:37:06.460Z,13.09
2023-05-11T07:38:06.442Z,13.09
2023-05-11T07:39:06.454Z,13.12
2023-05-11T07:40:06.432Z,13.16
2023-05-11T07:41:07.427Z,13.17
2023-05-11T07:42:06.381Z,13.19
2023-05-11T07:43:06.377Z,13.17
2023-05-11T07:44:06.377Z,13.19
2023-05-11T07:45:06.368Z,13.17
2023-05-11T07:46:06.456Z,13.19
2023-05-11T07:47:06.328Z,13.21
2023-05-11T07:48:06.323Z,13.20
2023-05-11T07:49:15.804Z,13.20
2023-05-11T07:50:07.278Z,13.21
2023-05-11T07:51:06.282Z,13.21
2023-05-11T07:52:06.287Z,13.21
2023-05-11T07:53:06.248Z,13.21
2023-05-11T07:54:06.250Z,13.21
2023-05-11T07:55:06.211Z,13.23
2023-05-11T07:56:06.212Z,13.23
2023-05-11T07:57:06.203Z,13.26
2023-05-11T07:58:06.190Z,13.26
2023-05-11T07:59:06.184Z,13.27
2023-05-11T08:00:06.270Z,13.24
2023-05-11T08:01:06.141Z,13.26
2023-05-11T08:02:06.205Z,13.28
2023-05-11T08:03:06.155Z,13.28
2023-05-11T08:04:06.086Z,13.28
2023-05-11T08:05:06.083Z,13.27
2023-05-11T08:06:06.105Z,13.27
2023-05-11T08:07:06.063Z,13.28
2023-05-11T08:08:06.064Z,13.24
2023-05-11T08:09:06.046Z,13.24
2023-05-11T08:10:06.019Z,13.23
2023-05-11T08:11:06.034Z,13.23
2023-05-11T08:12:06.016Z,13.23
2023-05-11T08:13:05.991Z,13.23
2023-05-11T08:14:05.967Z,13.23
2023-05-11T08:15:05.949Z,13.23
2023-05-11T08:16:05.979Z,13.26
2023-05-11T08:17:05.965Z,13.28
2023-05-11T08:18:05.932Z,13.33
2023-05-11T08:19:06.090Z,13.30
2023-05-11T08:20:05.881Z,13.27
2023-05-11T08:21:05.874Z,13.27
2023-05-11T08:22:05.885Z,13.26
2023-05-11T08:23:05.847Z,13.26
2023-05-11T08:24:05.814Z,13.24
2023-05-11T08:25:05.803Z,13.23
2023-05-11T08:26:05.775Z,13.20
2023-05-11T08:27:05.815Z,13.19
2023-05-11T08:28:05.760Z,13.20
2023-05-11T08:29:05.743Z,13.20
2023-05-11T08:30:05.735Z,13.23
2023-05-11T08:31:05.746Z,13.21
2023-05-11T08:32:05.795Z,13.17
2023-05-11T08:33:17.633Z,13.17
2023-05-11T08:34:17.834Z,13.17
2023-05-11T08:35:06.767Z,13.20
2023-05-11T08:36:05.713Z,13.20
2023-05-11T08:37:05.680Z,13.21
2023-05-11T08:38:05.646Z,13.21
2023-05-11T08:39:05.631Z,13.26
2023-05-11T08:40:05.613Z,13.26
2023-05-11T08:41:05.615Z,13.27
2023-05-11T08:42:05.581Z,13.24
2023-05-11T08:43:05.578Z,13.23
2023-05-11T08:44:05.566Z,13.24
2023-05-11T08:45:05.560Z,13.26
2023-05-11T08:46:05.649Z,13.23
2023-05-11T08:47:21.038Z,13.24
2023-05-11T08:48:06.565Z,13.26
2023-05-11T08:49:05.514Z,13.28
2023-05-11T08:50:05.475Z,13.30
2023-05-11T08:51:05.497Z,13.30
2023-05-11T08:52:07.709Z,13.31
2023-05-11T08:53:05.444Z,13.33
2023-05-11T08:54:05.434Z,13.31
2023-05-11T08:55:05.416Z,13.36
2023-05-11T08:56:05.424Z,13.36
2023-05-11T08:57:05.388Z,13.37
2023-05-11T08:58:05.384Z,13.40
2023-05-11T08:59:05.367Z,13.42
2023-05-11T09:00:05.358Z,13.45
2023-05-11T09:01:05.397Z,13.49
2023-05-11T09:02:05.332Z,13.47
2023-05-11T09:03:05.388Z,13.49
2023-05-11T09:04:05.338Z,13.52
2023-05-11T09:05:05.360Z,13.55
2023-05-11T09:06:05.297Z,13.57
2023-05-11T09:07:05.265Z,13.57
2023-05-11T09:08:05.248Z,13.61
2023-05-11T09:09:05.239Z,13.62
2023-05-11T09:10:05.300Z,13.62
2023-05-11T09:11:05.220Z,13.65
2023-05-11T09:12:05.196Z,13.67
2023-05-11T09:13:05.173Z,13.67
2023-05-11T09:14:05.162Z,13.65
2023-05-11T09:15:05.158Z,13.65
2023-05-11T09:16:09.263Z,13.67
2023-05-11T09:17:06.210Z,13.65
2023-05-11T09:18:05.193Z,13.65
2023-05-11T09:19:05.201Z,13.61
2023-05-11T09:20:05.127Z,13.62
2023-05-11T09:21:05.074Z,13.65
2023-05-11T09:22:05.049Z,13.64
2023-05-11T09:23:05.058Z,13.62
2023-05-11T09:24:05.043Z,13.62
2023-05-11T09:25:05.037Z,13.60
2023-05-11T09:26:05.004Z,13.60
2023-05-11T09:27:05.005Z,13.61
2023-05-11T09:28:04.965Z,13.61
2023-05-11T09:29:05.433Z,13.58
2023-05-11T09:30:05.031Z,13.60
2023-05-11T09:31:04.968Z,13.60
2023-05-11T09:32:04.943Z,13.61
2023-05-11T09:33:04.966Z,13.60
2023-05-11T09:34:04.913Z,13.57
2023-05-11T09:35:04.889Z,13.54
2023-05-11T09:36:04.876Z,13.55
2023-05-11T09:37:04.878Z,13.52
2023-05-11T09:38:05.162Z,13.52
2023-05-11T09:39:04.869Z,13.57
2023-05-11T09:41:04.859Z,13.60
2023-05-11T09:42:04.789Z,13.62
2023-05-11T09:43:04.831Z,13.65
2023-05-11T09:44:04.793Z,13.65
2023-05-11T09:45:04.795Z,13.65
2023-05-11T09:46:04.842Z,13.68
2023-05-11T09:47:04.728Z,13.78
2023-05-11T09:48:04.861Z,13.78
2023-05-11T09:49:04.697Z,13.80
2023-05-11T09:50:04.700Z,13.82
2023-05-11T09:51:04.680Z,13.82
2023-05-11T09:52:04.684Z,13.85
2023-05-11T09:53:04.677Z,13.87
2023-05-11T09:54:04.621Z,13.87
2023-05-11T09:55:04.614Z,13.86
2023-05-11T09:56:04.643Z,13.89
2023-05-11T09:57:04.613Z,13.89
2023-05-11T09:58:04.597Z,13.94
2023-05-11T09:59:04.568Z,14.00
2023-05-11T10:00:04.573Z,14.04
2023-05-11T10:01:04.596Z,14.08
2023-05-11T10:02:04.560Z,14.16
2023-05-11T10:03:04.646Z,14.19
2023-05-11T10:04:13.837Z,14.25
2023-05-11T10:05:05.505Z,14.31
2023-05-11T10:06:04.481Z,14.38
2023-05-11T10:07:04.493Z,14.37
2023-05-11T10:08:04.448Z,14.43
2023-05-11T10:09:04.444Z,14.45
2023-05-11T10:10:04.432Z,14.51
2023-05-11T10:11:04.402Z,14.55
2023-05-11T10:12:04.404Z,14.58
2023-05-11T10:13:04.392Z,14.62
2023-05-11T10:14:04.364Z,14.68
2023-05-11T10:15:04.354Z,14.74
2023-05-11T10:16:04.404Z,14.85
2023-05-11T10:17:04.354Z,14.90
2023-05-11T10:18:04.352Z,14.92
2023-05-11T10:19:04.340Z,14.94
2023-05-11T10:20:04.301Z,14.97
2023-05-11T10:21:04.324Z,14.93
2023-05-11T10:22:04.307Z,14.89
2023-05-11T10:23:04.247Z,14.87
2023-05-11T10:24:04.249Z,14.89
2023-05-11T10:25:04.223Z,14.90
2023-05-11T10:26:04.229Z,14.92
2023-05-11T10:27:04.245Z,14.96
2023-05-11T10:28:04.189Z,14.99
2023-05-11T10:29:04.164Z,15.00
2023-05-11T10:30:04.198Z,15.05
2023-05-11T10:31:04.149Z,15.05
2023-05-11T10:32:04.211Z,15.11
2023-05-11T10:33:04.171Z,15.08
2023-05-11T10:34:04.109Z,15.10
2023-05-11T10:35:04.085Z,15.11
2023-05-11T10:36:04.093Z,15.08
2023-05-11T10:37:04.073Z,15.08
2023-05-11T10:38:04.049Z,15.12
2023-05-11T10:39:04.047Z,15.14
2023-05-11T10:40:04.043Z,15.17
2023-05-11T10:41:04.019Z,15.22
2023-05-11T10:42:04.022Z,15.19
2023-05-11T10:43:03.980Z,15.19
2023-05-11T10:44:03.963Z,15.18
2023-05-11T10:45:03.980Z,15.18
2023-05-11T10:46:03.983Z,15.19
2023-05-11T10:47:03.933Z,15.19
2023-05-11T10:48:03.964Z,15.19
2023-05-11T10:49:03.902Z,15.19
2023-05-11T10:50:03.910Z,15.22
2023-05-11T10:51:03.872Z,15.23
2023-05-11T10:52:03.856Z,15.26
2023-05-11T10:53:03.846Z,15.29
2023-05-11T10:54:03.868Z,15.36
2023-05-11T10:55:03.827Z,15.37
2023-05-11T10:56:03.823Z,15.41
2023-05-11T10:57:03.818Z,15.44
2023-05-11T10:58:03.795Z,15.47
2023-05-11T10:59:03.789Z,15.48
2023-05-11T11:00:03.756Z,15.50
2023-05-11T11:01:03.831Z,15.44
2023-05-11T11:02:03.745Z,15.47
2023-05-11T11:03:03.776Z,15.48
2023-05-11T11:04:03.711Z,15.50
2023-05-11T11:05:03.734Z,15.47
2023-05-11T11:06:03.732Z,15.50
2023-05-11T11:07:03.664Z,15.44
2023-05-11T11:08:03.652Z,15.44
2023-05-11T11:09:03.662Z,15.48
2023-05-11T11:10:03.622Z,15.51
2023-05-11T11:11:05.023Z,15.54
2023-05-11T11:12:03.597Z,15.57
2023-05-11T11:13:03.598Z,15.54
2023-05-11T11:14:03.765Z,15.51
2023-05-11T11:15:03.557Z,15.50
2023-05-11T11:16:03.568Z,15.45
2023-05-11T11:17:03.566Z,15.43
2023-05-11T11:18:03.619Z,15.39
2023-05-11T11:19:03.537Z,15.36
2023-05-11T11:20:03.494Z,15.37
2023-05-11T11:21:03.472Z,15.35
2023-05-11T11:22:03.479Z,15.33
2023-05-11T11:23:03.458Z,15.39
2023-05-11T11:24:03.448Z,15.41
2023-05-11T11:25:03.422Z,15.45
2023-05-11T11:26:03.417Z,15.51
2023-05-11T11:27:03.402Z,15.52
2023-05-11T11:28:03.406Z,15.55
2023-05-11T11:29:03.375Z,15.60
2023-05-11T11:30:03.369Z,15.63
2023-05-11T11:31:03.367Z,15.65
2023-05-11T11:32:03.351Z,15.67
2023-05-11T11:33:03.411Z,15.70
2023-05-11T11:34:03.312Z,15.72
2023-05-11T11:35:03.294Z,15.73
2023-05-11T11:36:03.278Z,15.78
2023-05-11T11:37:03.300Z,15.78
2023-05-11T11:38:03.259Z,15.80
2023-05-11T11:39:03.239Z,15.83
2023-05-11T11:40:13.669Z,15.85
2023-05-11T11:41:04.213Z,15.88
2023-05-11T11:42:03.227Z,15.90
2023-05-11T11:43:03.191Z,15.92
2023-05-11T11:44:03.208Z,15.92
2023-05-11T11:45:03.171Z,15.96
2023-05-11T11:46:03.262Z,15.94
2023-05-11T11:47:03.160Z,15.94
2023-05-11T11:48:03.184Z,15.92
2023-05-11T11:49:03.099Z,15.92
2023-05-11T11:50:03.104Z,15.94
2023-05-11T11:51:03.118Z,15.96
2023-05-11T11:52:03.078Z,15.92
2023-05-11T11:53:03.063Z,15.94
2023-05-11T11:54:03.055Z,15.94
2023-05-11T11:55:03.021Z,15.96
2023-05-11T11:56:03.047Z,15.96
2023-05-11T11:57:03.009Z,15.96
2023-05-11T11:58:02.990Z,15.99
2023-05-11T11:59:02.968Z,16.00
2023-05-11T12:00:02.957Z,16.02
2023-05-11T12:01:02.982Z,16.03
2023-05-11T12:02:02.929Z,16.06
2023-05-11T12:03:03.012Z,16.09
2023-05-11T12:04:03.107Z,16.08
2023-05-11T12:05:02.920Z,16.10
2023-05-11T12:06:02.891Z,16.08
2023-05-11T12:07:02.870Z,16.06
2023-05-11T12:08:02.850Z,16.05
2023-05-11T12:09:02.836Z,16.08
2023-05-11T12:10:02.945Z,16.06
2023-05-11T12:11:02.820Z,16.08
2023-05-11T12:12:02.830Z,16.08
2023-05-11T12:13:02.774Z,16.08
2023-05-11T12:14:02.816Z,16.06
2023-05-11T12:15:02.771Z,16.06
2023-05-11T12:16:02.795Z,16.09
2023-05-11T12:17:02.777Z,16.06
2023-05-11T12:18:02.951Z,16.03
2023-05-11T12:19:02.731Z,16.05
2023-05-11T12:20:02.725Z,16.05
2023-05-11T12:21:02.669Z,16.08
2023-05-11T12:22:02.675Z,16.09
2023-05-11T12:23:02.653Z,16.09
2023-05-11T12:24:02.649Z,16.08
2023-05-11T12:25:02.652Z,16.10
2023-05-11T12:26:02.606Z,16.10
2023-05-11T12:27:02.609Z,16.10
2023-05-11T12:28:02.602Z,16.12
2023-05-11T12:29:02.590Z,16.12
2023-05-11T12:30:02.635Z,16.13
2023-05-11T12:31:02.543Z,16.17
2023-05-11T12:32:02.557Z,16.17
2023-05-11T12:33:02.537Z,16.17
2023-05-11T12:34:02.529Z,16.12
2023-05-11T12:35:02.496Z,16.09
2023-05-11T12:36:02.496Z,16.09
2023-05-11T12:37:02.466Z,16.10
2023-05-11T12:38:02.465Z,16.13
2023-05-11T12:39:02.473Z,16.16
2023-05-11T12:40:02.438Z,16.16
2023-05-11T12:41:02.414Z,16.13
2023-05-11T12:42:02.418Z,16.13
2023-05-11T12:43:02.388Z,16.13
2023-05-11T12:44:02.395Z,16.10
2023-05-11T12:45:02.378Z,16.12
2023-05-11T12:46:02.393Z,16.16
2023-05-11T12:47:02.340Z,16.13
2023-05-11T12:48:02.371Z,16.12
2023-05-11T12:49:02.321Z,16.13
2023-05-11T12:50:02.302Z,16.12
2023-05-11T12:51:02.295Z,16.12
2023-05-11T12:52:02.333Z,16.08
2023-05-11T12:53:02.279Z,16.03